Time;durP1;ratioP1;P1;durP2;ratioP2;P2;SDS_P1;SDS_P2;PMS_P1;PMS_P2;Temp;Humidity;BMP_temperature;BMP_pressure;BME280_temperature;BME280_humidity;BME280_pressure;Samples;Min_cycle;Max_cycle;Signal;HPM_P1;HPM_P2
2021/05/25 00:02:24;;;;;;;2.53;1.52;;;10.30;99.90;;;;;;5053995;28;20021;-71
2021/05/25 00:04:50;;;;;;;2.63;1.92;;;10.40;99.90;;;;;;5054121;28;20036;-71
2021/05/25 00:07:15;;;;;;;2.10;1.63;;;10.30;99.90;;;;;;5053935;28;20017;-71
2021/05/25 00:09:41;;;;;;;1.70;1.55;;;10.20;99.90;;;;;;5054304;28;20237;-72
2021/05/25 00:12:07;;;;;;;2.13;1.60;;;10.10;99.90;;;;;;5054025;28;20029;-71
2021/05/25 00:14:33;;;;;;;1.88;1.40;;;10.20;99.90;;;;;;5037395;28;20036;-71
2021/05/25 00:16:58;;;;;;;1.80;1.50;;;10.20;99.90;;;;;;5039219;28;20024;-71
2021/05/25 00:19:24;;;;;;;2.30;1.60;;;10.10;99.90;;;;;;5053646;28;20028;-71
2021/05/25 00:21:50;;;;;;;1.95;1.30;;;10.00;99.90;;;;;;5034920;28;20017;-71
2021/05/25 00:24:16;;;;;;;1.65;1.33;;;9.90;99.90;;;;;;5053818;28;20020;-72
2021/05/25 00:26:42;;;;;;;2.33;1.67;;;9.90;99.90;;;;;;5053764;28;20060;-72
2021/05/25 00:29:08;;;;;;;1.70;1.40;;;9.90;99.90;;;;;;5035647;28;20388;-71
2021/05/25 00:31:34;;;;;;;1.65;1.30;;;9.90;99.90;;;;;;5053435;28;20043;-71
2021/05/25 00:33:59;;;;;;;2.65;1.75;;;9.90;99.90;;;;;;5056645;28;20562;-72
2021/05/25 00:36:28;;;;;;;1.50;1.40;;;9.80;99.90;;;;;;5056667;28;20458;-72
2021/05/25 00:38:54;;;;;;;1.70;1.30;;;9.70;99.90;;;;;;5073627;28;20020;-72
2021/05/25 00:41:20;;;;;;;1.75;1.20;;;9.60;99.90;;;;;;5073209;28;20021;-72
2021/05/25 00:43:45;;;;;;;3.42;1.42;;;9.70;99.90;;;;;;5073586;28;20012;-72
2021/05/25 00:46:11;;;;;;;2.22;1.40;;;9.70;99.90;;;;;;5055547;28;20074;-72
2021/05/25 00:48:36;;;;;;;1.45;1.13;;;9.60;99.90;;;;;;5073478;28;20033;-72
2021/05/25 00:51:03;;;;;;;2.75;1.42;;;9.60;99.90;;;;;;5073062;28;20495;-72
2021/05/25 00:53:30;;;;;;;2.60;1.40;;;9.50;99.90;;;;;;5073470;28;20028;-71
2021/05/25 00:55:55;;;;;;;2.58;1.70;;;9.50;99.90;;;;;;5073192;28;20177;-72
2021/05/25 00:58:22;;;;;;;1.50;1.40;;;9.50;99.90;;;;;;5068567;28;20018;-72
2021/05/25 01:00:49;;;;;;;1.55;1.40;;;9.40;99.90;;;;;;5056426;28;20024;-72
2021/05/25 01:03:22;;;;;;;3.05;1.40;;;9.50;99.90;;;;;;5073059;28;20056;-72
2021/05/25 01:05:48;;;;;;;3.00;1.50;;;9.50;99.90;;;;;;5049732;28;20029;-72
2021/05/25 01:08:14;;;;;;;2.75;1.45;;;9.60;99.90;;;;;;5046218;28;20488;-72
2021/05/25 01:10:46;;;;;;;1.48;1.17;;;9.60;99.90;;;;;;5068321;28;20101;-72
2021/05/25 01:13:22;;;;;;;2.35;1.30;;;9.60;99.90;;;;;;5043817;28;20055;-73
2021/05/25 01:15:49;;;;;;;2.35;1.15;;;9.60;99.90;;;;;;5052945;28;20025;-73
2021/05/25 01:18:16;;;;;;;1.70;1.35;;;9.50;99.90;;;;;;5053026;28;20480;-73
2021/05/25 01:20:43;;;;;;;2.67;1.58;;;9.40;99.90;;;;;;5065753;28;20044;-73
2021/05/25 01:23:09;;;;;;;1.20;1.10;;;9.50;99.90;;;;;;5066559;28;20421;-72
2021/05/25 01:25:39;;;;;;;2.38;1.48;;;9.50;99.90;;;;;;5065887;28;20033;-73
2021/05/25 01:28:09;;;;;;;1.58;1.15;;;9.40;99.90;;;;;;5053543;28;20021;-73
2021/05/25 01:30:38;;;;;;;3.78;1.30;;;9.50;99.90;;;;;;5072499;28;20050;-71
2021/05/25 01:33:05;;;;;;;1.75;1.20;;;9.30;99.90;;;;;;5073100;28;20060;-71
2021/05/25 01:35:31;;;;;;;1.80;1.25;;;9.20;99.90;;;;;;5072911;28;20076;-71
2021/05/25 01:37:59;;;;;;;1.73;1.23;;;9.20;99.90;;;;;;5072716;28;20375;-71
2021/05/25 01:40:26;;;;;;;1.30;1.20;;;9.10;99.90;;;;;;5054818;28;20021;-71
2021/05/25 01:42:52;;;;;;;2.47;1.10;;;9.20;99.90;;;;;;5080806;22;20407;-74
2021/05/25 01:45:21;;;;;;;1.65;1.00;;;9.10;99.90;;;;;;5056441;28;20025;-75
2021/05/25 01:47:47;;;;;;;1.90;1.00;;;9.10;99.90;;;;;;5072383;28;20024;-75
2021/05/25 01:50:15;;;;;;;2.00;1.10;;;9.20;99.90;;;;;;5054410;28;20031;-74
2021/05/25 01:52:55;;;;;;;3.42;1.10;;;9.20;99.90;;;;;;5072489;28;20470;-75
2021/05/25 01:55:38;;;;;;;3.20;1.10;;;9.10;99.90;;;;;;5043221;28;20438;-75
2021/05/25 01:58:19;;;;;;;1.42;1.33;;;9.10;99.90;;;;;;5034493;28;20388;-75
2021/05/25 02:00:53;;;;;;;1.75;1.05;;;9.10;99.90;;;;;;5052255;28;20571;-75
2021/05/25 02:03:20;;;;;;;1.48;1.10;;;9.10;99.90;;;;;;5062822;28;20392;-75
2021/05/25 02:05:46;;;;;;;2.05;1.25;;;9.10;99.90;;;;;;5070677;28;20028;-75
2021/05/25 02:08:12;;;;;;;1.90;1.15;;;9.00;99.90;;;;;;5052546;28;20021;-74
2021/05/25 02:10:40;;;;;;;1.42;0.90;;;9.00;99.90;;;;;;5069744;28;20032;-74
2021/05/25 02:13:14;;;;;;;3.15;1.20;;;9.00;99.90;;;;;;5072620;28;20494;-74
2021/05/25 02:15:40;;;;;;;1.92;1.13;;;8.80;99.90;;;;;;5075098;28;20503;-75
2021/05/25 02:18:14;;;;;;;2.80;1.20;;;8.80;99.90;;;;;;5053470;28;20056;-75
2021/05/25 02:20:42;;;;;;;3.42;1.20;;;8.90;99.90;;;;;;5071765;28;20553;-74
2021/05/25 02:23:08;;;;;;;1.88;1.30;;;8.90;99.90;;;;;;5071655;28;20028;-74
2021/05/25 02:25:34;;;;;;;2.47;1.30;;;8.90;99.90;;;;;;5053621;28;20024;-75
2021/05/25 02:28:02;;;;;;;2.63;1.40;;;8.90;99.90;;;;;;5071710;28;20064;-74
2021/05/25 02:30:28;;;;;;;1.98;1.05;;;9.00;99.90;;;;;;5054334;28;20024;-74
2021/05/25 02:32:55;;;;;;;1.42;1.30;;;9.10;99.90;;;;;;5073089;28;20476;-74
2021/05/25 02:35:20;;;;;;;1.80;1.13;;;8.80;99.90;;;;;;5046642;28;20051;-75
2021/05/25 02:37:46;;;;;;;1.95;1.08;;;8.80;99.90;;;;;;5054660;28;20543;-75
2021/05/25 02:40:12;;;;;;;1.58;1.15;;;8.70;99.90;;;;;;5057973;28;20024;-73
2021/05/25 02:42:37;;;;;;;3.08;1.20;;;8.60;99.90;;;;;;5058551;28;20088;-74
2021/05/25 02:45:04;;;;;;;2.55;1.30;;;8.70;99.90;;;;;;5065071;28;20028;-74
2021/05/25 02:47:30;;;;;;;1.60;1.30;;;8.70;99.90;;;;;;5065788;28;20021;-74
2021/05/25 02:49:56;;;;;;;3.03;1.10;;;8.70;99.90;;;;;;5066712;28;20083;-73
2021/05/25 02:52:21;;;;;;;2.15;1.30;;;8.70;99.90;;;;;;5065891;28;20033;-74
2021/05/25 02:54:47;;;;;;;1.40;1.30;;;8.80;99.90;;;;;;5052868;28;20029;-74
2021/05/25 02:57:12;;;;;;;1.42;1.27;;;8.80;99.90;;;;;;5065162;28;20028;-74
2021/05/25 02:59:38;;;;;;;1.75;1.15;;;8.80;99.90;;;;;;5035188;28;20033;-74
2021/05/25 03:02:03;;;;;;;2.47;1.30;;;8.70;99.90;;;;;;5053199;28;20071;-74
2021/05/25 03:04:29;;;;;;;1.42;1.20;;;8.70;99.90;;;;;;5064160;28;20079;-75
2021/05/25 03:06:55;;;;;;;2.95;1.17;;;8.60;99.90;;;;;;5054890;28;20029;-75
2021/05/25 03:09:21;;;;;;;2.20;1.30;;;8.60;99.90;;;;;;5064534;28;20033;-74
2021/05/25 03:11:46;;;;;;;1.40;1.10;;;8.60;99.90;;;;;;5064974;28;20033;-74
2021/05/25 03:14:12;;;;;;;2.90;1.15;;;8.40;99.90;;;;;;5040849;28;20030;-75
2021/05/25 03:16:38;;;;;;;3.65;1.40;;;8.40;99.90;;;;;;5057809;28;20105;-75
2021/05/25 03:19:04;;;;;;;1.98;1.42;;;8.30;99.90;;;;;;5046486;28;20025;-75
2021/05/25 03:21:30;;;;;;;3.88;1.23;;;8.50;99.90;;;;;;5064816;28;20025;-75
2021/05/25 03:23:56;;;;;;;1.45;1.20;;;8.40;99.90;;;;;;5046382;28;20025;-74
2021/05/25 03:26:22;;;;;;;3.25;1.58;;;8.40;99.90;;;;;;5064615;28;20475;-74
2021/05/25 03:28:48;;;;;;;2.58;1.30;;;8.30;99.90;;;;;;5033281;28;20484;-74
2021/05/25 03:31:14;;;;;;;1.88;1.42;;;8.20;99.90;;;;;;5067894;28;20035;-74
2021/05/25 03:33:40;;;;;;;1.90;1.30;;;8.20;99.90;;;;;;5055300;28;20029;-74
2021/05/25 03:36:06;;;;;;;2.53;1.20;;;8.10;99.90;;;;;;5050751;28;20111;-75
2021/05/25 03:38:31;;;;;;;4.88;1.35;;;8.20;99.90;;;;;;5054943;28;20027;-75
2021/05/25 03:40:57;;;;;;;2.33;1.30;;;8.20;99.90;;;;;;5054720;28;20032;-75
2021/05/25 03:43:23;;;;;;;2.92;2.00;;;8.20;99.90;;;;;;5061963;28;20610;-75
2021/05/25 03:45:48;;;;;;;2.95;2.00;;;8.40;99.90;;;;;;5074503;28;20032;-75
2021/05/25 03:48:14;;;;;;;2.33;1.65;;;8.30;99.90;;;;;;5061745;28;20479;-75
2021/05/25 03:50:40;;;;;;;2.95;1.45;;;8.20;99.90;;;;;;5061121;28;20029;-75
2021/05/25 03:53:05;;;;;;;4.85;1.30;;;8.20;99.90;;;;;;5067854;28;20039;-75
2021/05/25 03:55:54;;;;;;;1.45;1.05;;;8.20;99.90;;;;;;5068066;28;20063;-76
2021/05/25 04:01:04;;;;;;;1.25;1.08;;;8.30;99.90;;;;;;5060248;28;20185;-75
2021/05/25 04:03:30;;;;;;;1.85;1.20;;;8.30;99.90;;;;;;5062006;28;20434;-75
2021/05/25 04:05:56;;;;;;;2.22;1.50;;;8.30;99.90;;;;;;5067817;28;20025;-73
2021/05/25 04:08:22;;;;;;;2.22;1.25;;;8.40;99.90;;;;;;5066908;28;20020;-73
2021/05/25 04:10:48;;;;;;;1.98;1.10;;;8.50;99.90;;;;;;5060619;28;20029;-73
2021/05/25 04:13:15;;;;;;;2.42;1.67;;;8.40;99.90;;;;;;5062131;28;20554;-73
2021/05/25 04:15:50;;;;;;;2.75;2.00;;;8.50;99.90;;;;;;5067501;28;20021;-74
2021/05/25 04:18:16;;;;;;;3.33;2.10;;;8.60;99.90;;;;;;5036192;28;20021;-74
2021/05/25 04:20:42;;;;;;;2.60;2.00;;;8.60;99.90;;;;;;5054019;28;20025;-74
2021/05/25 04:23:08;;;;;;;2.58;1.80;;;8.70;99.90;;;;;;5053933;28;20025;-73
2021/05/25 04:25:34;;;;;;;2.22;1.40;;;8.80;99.90;;;;;;5043109;28;20032;-73
2021/05/25 04:27:59;;;;;;;4.13;1.95;;;8.80;99.90;;;;;;5073884;28;20020;-73
2021/05/25 04:30:25;;;;;;;4.68;1.80;;;8.60;99.90;;;;;;5073636;28;20032;-73
2021/05/25 04:32:51;;;;;;;2.33;1.48;;;8.50;99.90;;;;;;5052415;28;20029;-73
2021/05/25 04:35:17;;;;;;;4.18;1.73;;;8.40;99.90;;;;;;5048797;28;20400;-73
2021/05/25 04:37:43;;;;;;;3.67;1.70;;;8.40;99.90;;;;;;5049372;28;20532;-73
2021/05/25 04:40:09;;;;;;;3.63;1.80;;;8.40;99.90;;;;;;5045450;28;20112;-73
2021/05/25 04:42:35;;;;;;;2.13;1.48;;;8.40;99.90;;;;;;5066754;28;20041;-74
2021/05/25 04:45:00;;;;;;;2.92;1.60;;;8.30;99.90;;;;;;5060582;28;20024;-74
2021/05/25 04:47:26;;;;;;;2.40;1.30;;;8.40;99.90;;;;;;5042110;28;20399;-74
2021/05/25 04:49:51;;;;;;;1.75;1.35;;;8.20;99.90;;;;;;5066185;28;20037;-73
2021/05/25 04:52:17;;;;;;;2.78;1.27;;;8.00;99.90;;;;;;5066784;28;20162;-73
2021/05/25 04:54:42;;;;;;;3.78;1.50;;;8.00;99.90;;;;;;5060237;28;20067;-73
2021/05/25 04:57:09;;;;;;;2.03;1.40;;;8.00;99.90;;;;;;5073458;28;20029;-74
2021/05/25 04:59:35;;;;;;;8.05;3.28;;;8.10;99.90;;;;;;5048786;28;20021;-73
2021/05/25 05:02:01;;;;;;;12.65;7.45;;;8.30;99.90;;;;;;5053615;28;20029;-73
2021/05/25 05:04:26;;;;;;;4.20;2.30;;;8.30;99.90;;;;;;5066444;28;20036;-72
2021/05/25 05:06:52;;;;;;;1.88;1.48;;;8.40;99.90;;;;;;5067005;28;20108;-73
2021/05/25 05:09:17;;;;;;;3.90;1.85;;;8.50;99.90;;;;;;5059857;28;20033;-73
2021/05/25 05:11:43;;;;;;;2.15;1.60;;;8.40;99.90;;;;;;5060031;28;20140;-74
2021/05/25 05:14:08;;;;;;;1.88;1.35;;;8.50;99.90;;;;;;5066425;28;20447;-74
2021/05/25 05:16:34;;;;;;;3.13;1.30;;;8.40;99.90;;;;;;5066411;28;20022;-73
2021/05/25 05:18:59;;;;;;;4.13;1.60;;;8.30;99.90;;;;;;5059985;28;20039;-73
2021/05/25 05:21:25;;;;;;;2.92;1.50;;;8.20;99.90;;;;;;5060785;28;20052;-73
2021/05/25 05:23:50;;;;;;;3.22;1.40;;;8.20;99.90;;;;;;5067140;28;20025;-73
2021/05/25 05:26:16;;;;;;;4.43;1.35;;;8.20;99.90;;;;;;5048951;28;20032;-73
2021/05/25 05:28:42;;;;;;;2.92;1.40;;;8.20;99.90;;;;;;5042227;28;20095;-73
2021/05/25 05:31:08;;;;;;;3.47;1.30;;;8.20;99.90;;;;;;5060301;28;20032;-74
2021/05/25 05:33:33;;;;;;;4.03;1.80;;;8.30;99.90;;;;;;5066518;28;20483;-73
2021/05/25 05:35:59;;;;;;;3.05;1.40;;;8.50;99.90;;;;;;5053503;28;20029;-73
2021/05/25 05:38:24;;;;;;;2.72;1.35;;;8.50;99.90;;;;;;5048818;28;20483;-72
2021/05/25 05:40:51;;;;;;;3.60;2.00;;;8.60;99.90;;;;;;5064703;28;20074;-71
2021/05/25 05:43:18;;;;;;;1.95;1.70;;;8.60;99.90;;;;;;5072341;28;20723;-73
2021/05/25 05:45:44;;;;;;;2.22;1.40;;;8.80;99.90;;;;;;5060606;28;20021;-73
2021/05/25 05:48:10;;;;;;;2.65;1.50;;;9.00;99.90;;;;;;5066671;28;20053;-73
2021/05/25 05:50:35;;;;;;;1.80;1.40;;;9.00;99.90;;;;;;5035015;28;20518;-73
2021/05/25 05:53:01;;;;;;;3.60;1.35;;;9.10;99.90;;;;;;5065797;28;20464;-73
2021/05/25 05:55:27;;;;;;;4.00;1.60;;;9.10;99.90;;;;;;5047248;28;20040;-73
2021/05/25 05:57:53;;;;;;;3.75;1.40;;;9.20;99.90;;;;;;5054123;28;20021;-73
2021/05/25 06:00:20;;;;;;;2.40;1.50;;;9.40;99.90;;;;;;5040049;28;20091;-73
2021/05/25 06:02:45;;;;;;;3.17;1.58;;;9.40;99.90;;;;;;5058905;28;20032;-72
2021/05/25 06:05:12;;;;;;;1.40;1.30;;;9.40;99.90;;;;;;5042353;28;20024;-73
2021/05/25 06:07:37;;;;;;;3.65;1.48;;;9.30;99.90;;;;;;5066327;28;20437;-73
2021/05/25 06:10:05;;;;;;;3.83;1.63;;;9.30;99.90;;;;;;5065288;28;20109;-73
2021/05/25 06:12:31;;;;;;;1.90;1.40;;;9.40;99.90;;;;;;5034788;28;20032;-73
2021/05/25 06:14:56;;;;;;;2.95;1.40;;;9.40;99.90;;;;;;5034415;28;20025;-73
2021/05/25 06:17:22;;;;;;;3.80;1.42;;;9.60;99.90;;;;;;5047726;28;20025;-73
2021/05/25 06:19:47;;;;;;;2.72;1.30;;;9.70;99.90;;;;;;5046571;28;20479;-73
2021/05/25 06:22:13;;;;;;;2.45;1.30;;;9.60;99.90;;;;;;5058584;28;20082;-73
2021/05/25 06:24:39;;;;;;;4.65;1.40;;;9.80;99.90;;;;;;5049254;28;20091;-73
2021/05/25 06:27:04;;;;;;;1.95;1.33;;;10.00;99.90;;;;;;5051743;28;20040;-73
2021/05/25 06:29:30;;;;;;;3.75;1.20;;;10.00;99.90;;;;;;5051278;28;20029;-73
2021/05/25 06:32:00;;;;;;;2.33;1.10;;;10.00;99.90;;;;;;5056178;28;20488;-73
2021/05/25 06:34:29;;;;;;;3.17;1.38;;;9.90;99.90;;;;;;5051502;28;20025;-73
2021/05/25 06:36:57;;;;;;;2.88;1.30;;;9.70;99.90;;;;;;5039526;28;20021;-73
2021/05/25 06:39:23;;;;;;;2.72;1.35;;;9.70;99.90;;;;;;5034728;28;20496;-74
2021/05/25 06:41:48;;;;;;;3.38;1.30;;;9.60;99.90;;;;;;5064109;28;20064;-73
2021/05/25 06:44:14;;;;;;;2.17;1.25;;;9.60;99.90;;;;;;5065366;28;20024;-73
2021/05/25 06:46:40;;;;;;;4.03;1.15;;;9.50;99.90;;;;;;5059121;28;20107;-73
2021/05/25 06:49:06;;;;;;;3.85;1.40;;;9.40;99.90;;;;;;5040639;28;20144;-73
2021/05/25 06:51:32;;;;;;;1.20;1.08;;;9.40;99.90;;;;;;5064448;28;20025;-73
2021/05/25 06:53:57;;;;;;;2.95;1.20;;;9.50;99.90;;;;;;5065735;28;20035;-73
2021/05/25 06:56:23;;;;;;;3.15;1.20;;;9.50;99.90;;;;;;5041218;28;20066;-74
2021/05/25 06:58:48;;;;;;;4.22;2.20;;;9.40;99.90;;;;;;5049331;28;20424;-72
2021/05/25 07:01:14;;;;;;;2.05;1.83;;;9.40;99.90;;;;;;5047718;28;20025;-73
2021/05/25 07:03:40;;;;;;;1.73;1.40;;;9.30;99.90;;;;;;5072293;28;20036;-72
2021/05/25 07:06:05;;;;;;;6.80;5.78;;;9.30;99.90;;;;;;5059973;28;20025;-73
2021/05/25 07:08:31;;;;;;;2.95;1.25;;;9.40;99.90;;;;;;5052111;28;20024;-72
2021/05/25 07:10:57;;;;;;;2.70;1.65;;;9.30;99.90;;;;;;5063397;28;20037;-73
2021/05/25 07:13:23;;;;;;;4.63;1.58;;;9.50;99.90;;;;;;5076268;28;20483;-73
2021/05/25 07:15:48;;;;;;;2.83;1.70;;;9.80;99.90;;;;;;5056676;28;20088;-73
2021/05/25 07:18:17;;;;;;;3.90;1.20;;;10.10;99.90;;;;;;5051439;28;20021;-73
2021/05/25 07:20:43;;;;;;;4.35;2.38;;;10.30;99.90;;;;;;5055894;28;20028;-73
2021/05/25 07:23:10;;;;;;;2.58;1.13;;;10.20;99.90;;;;;;5055739;28;20021;-73
2021/05/25 07:25:37;;;;;;;2.53;1.27;;;10.10;99.90;;;;;;5062783;28;20029;-73
2021/05/25 07:28:02;;;;;;;1.27;1.17;;;10.10;99.90;;;;;;5061289;28;20055;-73
2021/05/25 07:30:28;;;;;;;3.28;1.35;;;10.30;99.90;;;;;;5062882;28;20475;-72
2021/05/25 07:32:54;;;;;;;3.22;1.85;;;10.30;99.90;;;;;;5062184;28;20029;-73
2021/05/25 07:35:20;;;;;;;2.72;1.17;;;10.20;99.90;;;;;;5068247;28;20025;-72
2021/05/25 07:37:45;;;;;;;2.47;1.23;;;9.80;99.90;;;;;;5068911;28;20043;-73
2021/05/25 07:40:14;;;;;;;2.95;1.30;;;9.70;99.90;;;;;;5055139;28;20021;-73
2021/05/25 07:42:40;;;;;;;4.10;1.33;;;9.80;99.90;;;;;;5089014;22;20128;-71
2021/05/25 07:45:06;;;;;;;1.58;1.30;;;9.90;99.90;;;;;;5055500;28;20497;-71
2021/05/25 07:47:32;;;;;;;2.38;1.52;;;9.80;99.90;;;;;;5074577;28;20021;-71
2021/05/25 07:49:58;;;;;;;4.75;1.25;;;9.70;99.90;;;;;;5066670;28;20033;-71
2021/05/25 07:52:24;;;;;;;3.28;1.00;;;9.60;99.90;;;;;;5033817;28;20025;-71
2021/05/25 07:54:49;;;;;;;2.15;1.00;;;9.50;99.90;;;;;;5036578;28;20056;-71
2021/05/25 07:57:15;;;;;;;2.40;1.20;;;9.40;99.90;;;;;;5054958;28;20025;-71
2021/05/25 07:59:40;;;;;;;2.88;1.20;;;9.50;99.90;;;;;;5038666;28;20021;-71
2021/05/25 08:02:06;;;;;;;2.90;1.00;;;9.60;99.90;;;;;;5048796;28;20032;-71
2021/05/25 08:04:31;;;;;;;2.70;1.40;;;9.60;99.90;;;;;;5054410;28;20599;-71
2021/05/25 08:06:57;;;;;;;1.67;0.95;;;9.70;99.90;;;;;;5025463;28;20434;-71
2021/05/25 08:09:23;;;;;;;1.73;1.10;;;9.70;99.90;;;;;;5041792;28;20391;-71
2021/05/25 08:11:48;;;;;;;3.03;1.05;;;9.60;99.90;;;;;;5054088;28;20102;-71
2021/05/25 08:14:14;;;;;;;2.78;1.23;;;9.50;99.90;;;;;;5054113;28;20128;-71
2021/05/25 08:16:42;;;;;;;1.08;0.80;;;9.60;99.90;;;;;;5052676;28;20479;-72
2021/05/25 08:19:11;;;;;;;1.73;1.20;;;9.80;99.90;;;;;;5016370;28;20028;-72
2021/05/25 08:21:38;;;;;;;2.22;1.00;;;10.00;99.90;;;;;;5034117;28;20067;-72
2021/05/25 08:24:06;;;;;;;3.58;1.00;;;10.30;99.90;;;;;;5033907;28;20100;-70
2021/05/25 08:26:32;;;;;;;1.30;0.95;;;10.60;99.90;;;;;;5035996;28;20342;-71
2021/05/25 08:28:58;;;;;;;2.42;1.15;;;10.50;99.90;;;;;;5053934;28;20021;-71
2021/05/25 08:31:23;;;;;;;1.92;1.10;;;10.50;99.90;;;;;;5053640;28;20497;-71
2021/05/25 08:33:49;;;;;;;4.38;1.20;;;10.60;99.90;;;;;;5035907;28;20554;-71
2021/05/25 08:36:17;;;;;;;2.17;1.00;;;10.90;99.90;;;;;;5054162;28;20025;-68
2021/05/25 08:38:42;;;;;;;1.80;0.90;;;10.90;99.90;;;;;;5035544;28;20021;-68
2021/05/25 08:41:08;;;;;;;1.77;0.90;;;10.60;99.90;;;;;;5035936;28;20031;-71
2021/05/25 08:43:33;;;;;;;3.65;1.10;;;10.40;99.90;;;;;;5035282;28;20040;-71
2021/05/25 08:45:59;;;;;;;3.40;1.00;;;10.30;99.90;;;;;;5053538;28;20107;-71
2021/05/25 08:48:25;;;;;;;2.03;1.23;;;10.30;99.90;;;;;;5053536;28;20033;-71
2021/05/25 08:50:53;;;;;;;2.28;1.20;;;10.40;99.90;;;;;;5053081;28;20529;-71
2021/05/25 08:53:19;;;;;;;2.25;1.00;;;10.50;99.90;;;;;;5053044;28;20087;-71
2021/05/25 08:55:49;;;;;;;1.13;0.90;;;10.50;99.90;;;;;;5035406;28;20479;-71
2021/05/25 08:58:16;;;;;;;2.65;0.90;;;10.50;99.90;;;;;;5049521;28;20021;-71
2021/05/25 09:00:42;;;;;;;2.17;0.80;;;10.60;99.90;;;;;;5035740;28;20036;-71
2021/05/25 09:03:07;;;;;;;1.17;0.80;;;10.60;99.90;;;;;;5053152;28;20025;-71
2021/05/25 09:05:34;;;;;;;1.17;0.80;;;10.50;99.90;;;;;;5035290;28;20028;-71
2021/05/25 09:08:00;;;;;;;1.13;0.90;;;10.60;99.90;;;;;;5033024;28;20021;-71
2021/05/25 09:10:37;;;;;;;1.70;0.90;;;10.70;99.90;;;;;;5048688;28;20396;-71
2021/05/25 09:13:11;;;;;;;2.15;1.00;;;10.70;99.90;;;;;;5052992;28;20021;-71
2021/05/25 09:15:41;;;;;;;1.35;0.85;;;10.60;99.90;;;;;;5048357;28;20045;-71
2021/05/25 09:18:11;;;;;;;1.13;0.80;;;10.50;99.90;;;;;;5033012;28;20059;-71
2021/05/25 09:20:42;;;;;;;5.05;0.95;;;10.50;99.90;;;;;;5051772;28;20036;-71
2021/05/25 09:23:10;;;;;;;2.78;1.02;;;10.60;99.90;;;;;;5034864;28;20021;-71
2021/05/25 09:25:36;;;;;;;1.63;1.00;;;10.60;99.90;;;;;;5052798;28;20074;-71
2021/05/25 09:28:11;;;;;;;1.92;0.90;;;10.60;99.90;;;;;;5051714;28;20491;-71
2021/05/25 09:30:41;;;;;;;3.13;1.45;;;10.60;99.90;;;;;;5052549;28;20110;-71
2021/05/25 09:33:09;;;;;;;3.75;1.00;;;10.70;99.90;;;;;;5050795;28;20025;-71
2021/05/25 09:35:36;;;;;;;3.10;1.33;;;10.60;99.90;;;;;;5041611;28;20116;-71
2021/05/25 09:38:32;;;;;;;0.80;0.75;;;10.60;99.90;;;;;;5052519;28;20017;-71
2021/05/25 09:41:01;;;;;;;4.32;1.00;;;10.50;99.90;;;;;;5052018;28;20509;-71
2021/05/25 09:43:28;;;;;;;1.92;1.00;;;10.40;99.90;;;;;;5052240;28;20033;-71
2021/05/25 09:46:10;;;;;;;1.67;0.82;;;10.50;99.90;;;;;;5052723;28;20371;-71
2021/05/25 09:48:41;;;;;;;4.68;1.05;;;10.60;99.90;;;;;;5052527;28;20053;-71
2021/05/25 09:51:22;;;;;;;1.52;0.85;;;10.50;99.90;;;;;;5052140;28;20051;-71
2021/05/25 09:53:49;;;;;;;2.20;1.00;;;10.30;99.90;;;;;;5052245;28;20029;-71
2021/05/25 09:56:23;;;;;;;2.58;1.10;;;10.20;99.90;;;;;;5034193;28;20025;-72
2021/05/25 09:58:49;;;;;;;3.15;1.40;;;10.10;99.90;;;;;;5039269;28;20058;-71
2021/05/25 10:01:14;;;;;;;2.75;1.02;;;9.60;99.90;;;;;;5039183;28;20422;-71
2021/05/25 10:03:52;;;;;;;2.22;0.90;;;9.10;99.90;;;;;;5034278;28;20100;-70
2021/05/25 10:06:19;;;;;;;1.73;0.70;;;9.20;99.90;;;;;;5046211;28;20491;-71
2021/05/25 10:08:45;;;;;;;2.53;0.80;;;9.30;99.90;;;;;;5033841;28;20488;-71
2021/05/25 10:11:17;;;;;;;2.38;1.02;;;9.20;99.90;;;;;;5051905;28;20021;-71
2021/05/25 10:13:43;;;;;;;2.55;1.17;;;9.20;99.90;;;;;;5051949;28;20021;-71
2021/05/25 10:16:10;;;;;;;3.70;1.05;;;9.30;99.90;;;;;;5034086;28;20376;-71
2021/05/25 10:21:08;;;;;;;1.10;0.90;;;9.80;99.90;;;;;;5052064;28;20468;-71
2021/05/25 10:23:35;;;;;;;2.42;0.98;;;9.70;99.90;;;;;;5051713;28;20028;-71
2021/05/25 10:26:04;;;;;;;1.48;1.00;;;9.80;99.90;;;;;;5034192;28;20086;-71
2021/05/25 10:28:30;;;;;;;1.15;1.05;;;9.80;99.90;;;;;;5051664;28;20051;-71
2021/05/25 10:30:58;;;;;;;3.40;1.05;;;9.80;99.90;;;;;;5051510;28;20026;-71
2021/05/25 10:33:28;;;;;;;0.98;0.82;;;9.90;99.90;;;;;;5046519;28;20468;-71
2021/05/25 10:35:57;;;;;;;1.85;0.85;;;10.10;99.90;;;;;;5031759;28;20652;-71
2021/05/25 10:38:27;;;;;;;4.07;1.33;;;10.20;99.90;;;;;;5051086;28;20052;-71
2021/05/25 10:40:58;;;;;;;3.10;0.85;;;10.50;99.90;;;;;;5033541;28;20079;-71
2021/05/25 10:43:30;;;;;;;0.73;0.70;;;10.40;99.90;;;;;;5025785;28;20395;-71
2021/05/25 10:46:15;;;;;;;1.45;1.00;;;10.20;99.90;;;;;;5032516;28;20115;-72
2021/05/25 10:49:15;;;;;;;1.73;1.00;;;10.30;99.90;;;;;;5031612;28;20026;-71
2021/05/25 10:51:51;;;;;;;1.77;0.85;;;10.20;99.90;;;;;;5039724;28;20027;-71
2021/05/25 10:54:43;;;;;;;1.52;0.90;;;10.20;99.90;;;;;;5051075;28;20040;-71
2021/05/25 10:57:30;;;;;;;0.90;0.90;;;10.30;99.90;;;;;;5033576;28;20450;-71
2021/05/25 11:00:16;;;;;;;1.00;0.77;;;10.60;99.90;;;;;;5033545;28;20484;-71
2021/05/25 11:02:54;;;;;;;1.20;0.95;;;10.40;99.90;;;;;;5050261;28;20033;-71
2021/05/25 11:05:36;;;;;;;2.10;1.20;;;10.40;99.90;;;;;;5033277;28;20029;-71
2021/05/25 11:08:07;;;;;;;1.02;0.90;;;10.30;99.90;;;;;;5030261;28;20020;-71
2021/05/25 11:10:37;;;;;;;3.55;0.95;;;10.30;99.90;;;;;;5050981;28;20108;-71
2021/05/25 11:13:17;;;;;;;2.58;0.70;;;10.60;99.90;;;;;;5051125;28;20021;-71
2021/05/25 11:16:08;;;;;;;2.42;0.90;;;10.60;99.90;;;;;;5051250;28;20036;-71
2021/05/25 11:23:44;;;;;;;3.03;0.90;;;10.70;99.90;;;;;;5049032;28;20029;-71
2021/05/25 11:26:48;;;;;;;3.20;0.90;;;10.80;99.90;;;;;;5051359;28;20083;-71
2021/05/25 11:29:15;;;;;;;1.58;0.98;;;10.90;99.90;;;;;;5051059;28;20036;-71
2021/05/25 11:31:41;;;;;;;1.00;0.90;;;10.90;99.90;;;;;;5051033;28;20091;-71
2021/05/25 11:34:07;;;;;;;1.52;1.20;;;11.10;99.90;;;;;;5050927;28;20048;-71
2021/05/25 11:36:34;;;;;;;2.08;0.98;;;11.10;99.90;;;;;;5051053;28;20418;-71
2021/05/25 11:39:02;;;;;;;2.40;1.00;;;10.80;99.90;;;;;;5050693;28;20066;-71
2021/05/25 11:41:30;;;;;;;3.78;1.08;;;10.60;99.90;;;;;;5051655;28;20113;-72
2021/05/25 11:44:08;;;;;;;1.98;0.80;;;10.40;99.90;;;;;;5051412;28;20033;-71
2021/05/25 11:46:49;;;;;;;1.63;0.88;;;10.50;99.90;;;;;;5050951;28;20021;-72
2021/05/25 11:49:18;;;;;;;1.35;0.95;;;10.80;99.90;;;;;;5050762;28;20021;-72
2021/05/25 11:51:45;;;;;;;4.35;1.00;;;11.30;99.90;;;;;;5035866;28;20056;-71
2021/05/25 11:54:17;;;;;;;1.23;1.10;;;11.30;99.90;;;;;;5054801;28;20028;-71
2021/05/25 11:56:51;;;;;;;1.67;0.90;;;11.40;99.90;;;;;;5054390;28;20083;-72
2021/05/25 11:59:20;;;;;;;1.02;0.88;;;11.00;99.90;;;;;;5042029;28;20075;-71
2021/05/25 12:01:48;;;;;;;2.90;1.42;;;10.90;99.90;;;;;;5046050;28;20021;-71
2021/05/25 12:04:14;;;;;;;0.88;0.80;;;11.10;99.90;;;;;;5054351;28;20128;-71
2021/05/25 12:06:49;;;;;;;1.83;1.00;;;11.10;99.90;;;;;;5054440;28;20040;-72
2021/05/25 12:09:15;;;;;;;2.25;1.00;;;10.90;99.90;;;;;;5053947;28;20373;-71
2021/05/25 12:11:43;;;;;;;1.88;1.00;;;10.60;99.90;;;;;;5036399;28;20476;-71
2021/05/25 12:14:10;;;;;;;1.75;0.90;;;10.40;99.90;;;;;;5053943;28;20048;-71
2021/05/25 12:16:36;;;;;;;1.35;1.10;;;10.20;99.90;;;;;;5041511;28;20033;-71
2021/05/25 12:19:03;;;;;;;3.13;1.00;;;9.90;99.90;;;;;;5053437;28;20025;-71
2021/05/25 12:21:29;;;;;;;2.83;1.05;;;9.90;99.90;;;;;;5023561;28;20044;-71
2021/05/25 12:23:54;;;;;;;2.42;1.40;;;10.00;99.90;;;;;;5040259;28;20626;-71
2021/05/25 12:26:20;;;;;;;3.42;1.60;;;10.40;99.90;;;;;;5053977;28;20036;-71
2021/05/25 12:28:48;;;;;;;2.60;1.33;;;11.30;99.90;;;;;;5053901;28;20108;-71
2021/05/25 12:31:14;;;;;;;2.53;1.30;;;11.60;99.90;;;;;;5040355;28;20144;-71
2021/05/25 12:33:47;;;;;;;3.20;1.15;;;12.10;99.90;;;;;;5040613;28;20538;-71
2021/05/25 12:39:05;;;;;;;1.95;1.17;;;11.20;99.90;;;;;;5053758;28;20049;-71
2021/05/25 12:41:46;;;;;;;2.97;1.20;;;11.30;99.90;;;;;;5053675;28;20044;-71
2021/05/25 12:44:15;;;;;;;1.88;1.00;;;11.20;99.90;;;;;;5040359;28;20113;-71
2021/05/25 12:46:55;;;;;;;1.77;0.93;;;11.10;99.90;;;;;;5027746;28;20021;-71
2021/05/25 12:49:48;;;;;;;1.20;1.10;;;11.10;99.90;;;;;;5052950;28;20083;-71
2021/05/25 12:52:33;;;;;;;1.00;0.90;;;12.20;99.90;;;;;;5037857;28;20041;-71
2021/05/25 12:55:13;;;;;;;1.45;1.00;;;12.60;99.90;;;;;;5013354;28;20103;-71
2021/05/25 12:58:04;;;;;;;2.88;1.00;;;11.90;99.90;;;;;;5049179;28;20488;-71
2021/05/25 13:00:40;;;;;;;1.85;1.10;;;12.00;99.90;;;;;;5007998;28;20156;-71
2021/05/25 13:03:35;;;;;;;3.20;1.38;;;11.90;99.90;;;;;;5053002;28;20021;-71
2021/05/25 13:06:12;;;;;;;3.20;1.00;;;11.90;99.90;;;;;;5032231;28;20057;-71
2021/05/25 13:08:39;;;;;;;2.55;1.35;;;12.00;99.90;;;;;;5034292;28;20514;-71
2021/05/25 13:11:10;;;;;;;5.47;1.30;;;11.90;99.90;;;;;;5035218;28;20032;-71
2021/05/25 13:13:45;;;;;;;3.30;1.23;;;11.90;99.90;;;;;;5053006;28;20027;-71